createdAt,value
2019-03-08T00:01:10.707Z,11.11
2019-03-08T00:03:38.358Z,11.02
2019-03-08T00:06:05.975Z,10.93
2019-03-08T00:08:33.610Z,10.90
2019-03-08T00:11:01.597Z,10.85
2019-03-08T00:13:29.237Z,10.83
2019-03-08T00:15:58.423Z,10.87
2019-03-08T00:18:26.084Z,10.95
2019-03-08T00:20:53.746Z,10.97
2019-03-08T00:23:23.316Z,10.98
2019-03-08T00:25:51.453Z,10.91
2019-03-08T00:28:19.119Z,10.81
2019-03-08T00:30:46.715Z,10.72
2019-03-08T00:33:14.395Z,10.76
2019-03-08T00:35:42.070Z,10.67
2019-03-08T00:38:09.762Z,10.62
2019-03-08T00:40:37.354Z,10.55
2019-03-08T00:43:04.888Z,10.49
2019-03-08T00:45:33.499Z,10.45
2019-03-08T00:48:01.168Z,10.36
2019-03-08T00:50:28.791Z,10.23
2019-03-08T00:52:56.338Z,10.22
2019-03-08T00:55:23.963Z,10.23
2019-03-08T00:57:51.969Z,10.14
2019-03-08T01:00:19.961Z,10.05
2019-03-08T01:02:47.742Z,10.02
2019-03-08T01:05:19.334Z,9.64
2019-03-08T01:07:46.989Z,9.53
2019-03-08T01:10:16.428Z,9.45
2019-03-08T01:12:44.409Z,9.58
2019-03-08T01:15:14.006Z,9.59
2019-03-08T01:17:41.637Z,9.54
2019-03-08T01:20:10.136Z,9.49
2019-03-08T01:22:37.746Z,9.55
2019-03-08T01:25:05.972Z,9.59
2019-03-08T01:27:36.561Z,9.52
2019-03-08T01:30:06.075Z,9.49
2019-03-08T01:32:33.624Z,9.48
2019-03-08T01:35:01.142Z,9.31
2019-03-08T01:37:28.951Z,9.18
2019-03-08T01:39:56.508Z,9.18
2019-03-08T01:42:24.328Z,9.04
2019-03-08T01:44:51.982Z,9.12
2019-03-08T01:47:19.548Z,9.20
2019-03-08T01:49:47.058Z,9.18
2019-03-08T01:52:14.664Z,9.00
2019-03-08T01:57:27.978Z,8.82
2019-03-08T01:59:55.641Z,8.67
2019-03-08T02:02:23.218Z,8.67
2019-03-08T02:04:51.100Z,8.66
2019-03-08T02:07:18.765Z,8.59
2019-03-08T02:09:48.457Z,8.52
2019-03-08T02:12:16.088Z,8.44
2019-03-08T02:14:43.740Z,8.46
2019-03-08T02:17:11.490Z,8.39
2019-03-08T02:19:39.159Z,8.23
2019-03-08T02:22:06.823Z,7.99
2019-03-08T02:24:34.516Z,8.07
2019-03-08T02:27:02.130Z,8.08
2019-03-08T02:29:29.713Z,7.77
2019-03-08T02:31:57.275Z,7.81
2019-03-08T02:34:24.913Z,7.84
2019-03-08T02:36:52.435Z,7.80
2019-03-08T02:39:19.992Z,7.69
2019-03-08T02:41:48.054Z,7.67
2019-03-08T02:44:15.722Z,7.75
2019-03-08T02:46:43.306Z,7.75
2019-03-08T02:49:10.891Z,7.71
2019-03-08T02:51:39.546Z,7.60
2019-03-08T02:54:07.141Z,7.51
2019-03-08T02:56:34.761Z,7.54
2019-03-08T02:59:02.447Z,7.55
2019-03-08T03:01:30.159Z,7.32
2019-03-08T03:03:57.869Z,7.14
2019-03-08T03:06:25.666Z,7.31
2019-03-08T03:08:53.357Z,7.32
2019-03-08T03:11:20.968Z,7.16
2019-03-08T03:13:48.875Z,7.14
2019-03-08T03:16:16.543Z,7.19
2019-03-08T03:18:44.223Z,7.22
2019-03-08T03:21:11.897Z,7.22
2019-03-08T03:23:39.553Z,7.17
2019-03-08T03:26:08.227Z,7.07
2019-03-08T03:28:35.988Z,6.92
2019-03-08T03:31:03.649Z,7.01
2019-03-08T03:33:31.202Z,6.93
2019-03-08T03:35:58.804Z,6.93
2019-03-08T03:38:26.384Z,6.95
2019-03-08T03:40:54.082Z,6.91
2019-03-08T03:43:21.706Z,6.80
2019-03-08T03:45:52.205Z,6.79
2019-03-08T03:48:19.884Z,6.75
2019-03-08T03:50:47.545Z,6.75
2019-03-08T03:53:15.172Z,6.77
2019-03-08T03:55:42.697Z,6.79
2019-03-08T03:58:10.247Z,6.76
2019-03-08T04:00:38.201Z,6.73
2019-03-08T04:03:05.824Z,6.59
2019-03-08T04:05:33.451Z,6.55
2019-03-08T04:08:01.111Z,6.48
2019-03-08T04:10:29.659Z,6.57
2019-03-08T04:12:57.306Z,6.35
2019-03-08T04:15:25.078Z,6.42
2019-03-08T04:17:52.734Z,6.36
2019-03-08T04:20:20.378Z,6.40
2019-03-08T04:22:48.073Z,6.45
2019-03-08T04:25:15.697Z,6.45
2019-03-08T04:27:43.272Z,6.43
2019-03-08T04:30:16.455Z,6.42
2019-03-08T04:32:44.019Z,6.31
2019-03-08T04:35:11.556Z,6.36
2019-03-08T04:37:40.127Z,6.35
2019-03-08T04:40:08.380Z,6.40
2019-03-08T04:42:35.981Z,6.39
2019-03-08T04:45:03.763Z,6.37
2019-03-08T04:47:31.568Z,6.24
2019-03-08T04:49:59.153Z,6.29
2019-03-08T04:52:26.772Z,6.25
2019-03-08T04:54:54.312Z,6.32
2019-03-08T04:57:21.854Z,6.30
2019-03-08T04:59:49.443Z,6.25
2019-03-08T05:02:17.019Z,6.24
2019-03-08T05:04:44.646Z,6.23
2019-03-08T05:07:12.201Z,6.17
2019-03-08T05:09:39.921Z,6.17
2019-03-08T05:12:07.474Z,6.25
2019-03-08T05:14:35.080Z,6.33
2019-03-08T05:17:02.614Z,6.33
2019-03-08T05:19:30.422Z,6.29
2019-03-08T05:21:58.034Z,6.32
2019-03-08T05:24:25.709Z,6.34
2019-03-08T05:26:57.185Z,6.30
2019-03-08T05:29:25.980Z,6.29
2019-03-08T05:31:53.620Z,6.15
2019-03-08T05:34:22.023Z,6.28
2019-03-08T05:36:49.724Z,6.40
2019-03-08T05:39:17.459Z,6.41
2019-03-08T05:41:45.110Z,6.42
2019-03-08T05:44:12.886Z,6.46
2019-03-08T05:46:40.617Z,6.45
2019-03-08T05:49:09.284Z,6.42
2019-03-08T05:51:36.984Z,6.53
2019-03-08T05:54:04.693Z,6.54
2019-03-08T05:56:32.396Z,6.53
2019-03-08T05:58:59.950Z,6.60
2019-03-08T06:01:27.597Z,6.66
2019-03-08T06:03:55.196Z,6.65
2019-03-08T06:06:23.004Z,6.76
2019-03-08T06:08:50.544Z,6.87
2019-03-08T06:11:18.174Z,6.99
2019-03-08T06:13:45.738Z,7.10
2019-03-08T06:16:13.358Z,7.25
2019-03-08T06:18:40.873Z,7.23
2019-03-08T06:21:08.535Z,7.39
2019-03-08T06:23:36.126Z,7.54
2019-03-08T06:26:03.858Z,7.73
2019-03-08T06:28:31.412Z,7.99
2019-03-08T06:30:58.988Z,8.09
2019-03-08T06:33:26.508Z,8.25
2019-03-08T06:35:54.144Z,8.39
2019-03-08T06:38:21.694Z,8.52
2019-03-08T06:40:49.340Z,8.63
2019-03-08T06:43:16.873Z,8.76
2019-03-08T06:45:44.497Z,8.77
2019-03-08T06:48:12.022Z,8.75
2019-03-08T06:50:39.706Z,8.86
2019-03-08T06:53:07.229Z,8.90
2019-03-08T06:55:34.870Z,8.98
2019-03-08T06:58:04.067Z,9.01
2019-03-08T07:00:38.191Z,9.12
2019-03-08T07:03:06.318Z,9.12
2019-03-08T07:05:33.923Z,9.14
2019-03-08T07:08:01.543Z,9.29
2019-03-08T07:10:29.183Z,9.29
2019-03-08T07:13:03.199Z,9.23
2019-03-08T07:15:26.649Z,9.30
2019-03-08T07:17:54.193Z,9.35
2019-03-08T07:20:40.034Z,9.45
2019-03-08T07:23:28.197Z,9.60
2019-03-08T07:26:11.229Z,9.75
2019-03-08T07:28:53.932Z,9.98
2019-03-08T07:31:56.156Z,10.04
2019-03-08T07:34:43.264Z,10.17
2019-03-08T07:37:40.275Z,10.31
2019-03-08T07:40:46.080Z,10.53
2019-03-08T07:43:35.870Z,11.00
2019-03-08T07:46:35.097Z,11.42
2019-03-08T07:49:22.380Z,11.63
2019-03-08T07:52:12.781Z,11.75
2019-03-08T07:54:59.971Z,11.80
2019-03-08T07:57:43.634Z,11.84
2019-03-08T08:00:49.285Z,12.08
2019-03-08T08:03:24.984Z,12.41
2019-03-08T08:06:04.166Z,12.94
2019-03-08T08:08:39.908Z,13.47
2019-03-08T08:11:24.114Z,14.12
2019-03-08T08:14:01.507Z,14.56
2019-03-08T08:16:57.697Z,15.05
2019-03-08T08:19:41.277Z,15.40
2019-03-08T08:22:40.821Z,15.90
2019-03-08T08:25:40.269Z,16.37
2019-03-08T08:28:32.054Z,16.57
2019-03-08T08:31:28.145Z,16.62
2019-03-08T08:34:21.932Z,17.01
2019-03-08T08:37:24.077Z,16.93
2019-03-08T08:40:10.857Z,16.92
2019-03-08T08:42:57.925Z,16.75
2019-03-08T08:46:03.468Z,16.57
2019-03-08T08:48:59.761Z,16.25
2019-03-08T08:51:59.015Z,15.82
2019-03-08T08:54:57.926Z,15.54
2019-03-08T08:57:45.079Z,15.84
2019-03-08T09:00:34.420Z,15.85
2019-03-08T09:03:21.519Z,15.21
2019-03-08T09:06:01.665Z,14.91
2019-03-08T09:08:44.623Z,14.55
2019-03-08T09:11:20.033Z,14.40
2019-03-08T09:14:05.964Z,14.16
2019-03-08T09:16:58.732Z,14.05
2019-03-08T09:19:44.392Z,13.82
2019-03-08T09:22:23.597Z,13.78
2019-03-08T09:25:13.537Z,13.63
2019-03-08T09:28:06.499Z,13.50
2019-03-08T09:31:11.847Z,13.39
2019-03-08T09:34:07.586Z,13.32
2019-03-08T09:36:54.777Z,13.21
2019-03-08T09:39:40.306Z,13.15
2019-03-08T09:42:15.520Z,13.21
2019-03-08T09:45:08.169Z,13.18
2019-03-08T09:48:01.533Z,13.13
2019-03-08T09:50:52.385Z,13.03
2019-03-08T09:53:31.008Z,13.02
2019-03-08T09:56:04.685Z,12.91
2019-03-08T09:59:04.142Z,12.79
2019-03-08T10:01:59.967Z,12.73
2019-03-08T10:04:45.571Z,12.73
2019-03-08T10:07:21.271Z,12.77
2019-03-08T10:10:08.493Z,12.74
2019-03-08T10:12:48.561Z,12.77
2019-03-08T10:15:50.887Z,12.72
2019-03-08T10:18:34.795Z,12.69
2019-03-08T10:21:21.985Z,12.81
2019-03-08T10:24:09.324Z,12.78
2019-03-08T10:26:57.460Z,12.91
2019-03-08T10:29:50.427Z,13.02
2019-03-08T10:32:37.761Z,13.25
2019-03-08T10:35:24.807Z,13.44
2019-03-08T10:38:04.163Z,13.57
2019-03-08T10:40:48.745Z,13.75
2019-03-08T10:43:36.061Z,13.87
2019-03-08T10:46:23.761Z,14.02
2019-03-08T10:49:10.963Z,14.42
2019-03-08T10:52:00.881Z,14.65
2019-03-08T10:54:50.596Z,14.79
2019-03-08T10:57:52.868Z,14.94
2019-03-08T11:00:32.856Z,15.40
2019-03-08T11:03:18.708Z,15.74
2019-03-08T11:05:58.620Z,16.17
2019-03-08T11:08:52.743Z,16.50
2019-03-08T11:11:49.276Z,16.66
2019-03-08T11:14:23.680Z,16.79
2019-03-08T11:17:06.828Z,16.87
2019-03-08T11:19:52.676Z,17.00
2019-03-08T11:22:45.566Z,17.00
2019-03-08T11:25:35.024Z,16.93
2019-03-08T11:28:21.231Z,16.92
2019-03-08T11:31:14.208Z,17.34
2019-03-08T11:34:00.266Z,17.62
2019-03-08T11:36:47.382Z,17.54
2019-03-08T11:39:25.630Z,17.30
2019-03-08T11:42:01.573Z,17.27
2019-03-08T11:44:48.744Z,17.14
2019-03-08T11:47:27.989Z,17.27
2019-03-08T11:50:33.272Z,17.30
2019-03-08T11:53:18.390Z,17.33
2019-03-08T11:56:12.009Z,17.35
2019-03-08T11:59:00.644Z,17.79
2019-03-08T12:01:54.584Z,18.23
2019-03-08T12:04:44.707Z,18.55
2019-03-08T12:07:31.792Z,18.78
2019-03-08T12:10:24.924Z,18.50
2019-03-08T12:13:10.731Z,18.52
2019-03-08T12:15:57.990Z,18.56
2019-03-08T12:18:45.552Z,18.50
2019-03-08T12:21:32.769Z,18.81
2019-03-08T12:24:25.464Z,18.92
2019-03-08T12:27:24.305Z,18.90
2019-03-08T12:30:11.396Z,19.41
2019-03-08T12:32:46.788Z,19.74
2019-03-08T12:35:33.903Z,19.37
2019-03-08T12:38:40.193Z,19.12
2019-03-08T12:41:16.623Z,18.68
2019-03-08T12:44:09.914Z,18.54
2019-03-08T12:47:15.034Z,18.19
2019-03-08T12:50:02.243Z,17.95
2019-03-08T12:52:47.705Z,17.68
2019-03-08T12:55:41.031Z,17.35
2019-03-08T12:58:28.270Z,17.18
2019-03-08T13:01:21.076Z,17.21
2019-03-08T13:04:16.947Z,17.21
2019-03-08T13:07:08.090Z,17.61
2019-03-08T13:09:48.943Z,18.23
2019-03-08T13:12:17.100Z,18.65
2019-03-08T13:14:44.713Z,18.91
2019-03-08T13:17:12.299Z,19.29
2019-03-08T13:19:39.910Z,19.54
2019-03-08T13:22:07.427Z,19.68
2019-03-08T13:24:35.152Z,19.70
2019-03-08T13:27:02.714Z,19.88
2019-03-08T13:29:30.317Z,20.19
2019-03-08T13:31:57.870Z,20.21
2019-03-08T13:34:25.721Z,20.32
2019-03-08T13:36:53.324Z,20.51
2019-03-08T13:39:20.967Z,20.30
2019-03-08T13:41:48.541Z,20.43
2019-03-08T13:44:16.171Z,20.08
2019-03-08T13:46:43.732Z,20.12
2019-03-08T13:49:11.664Z,19.70
2019-03-08T13:51:39.410Z,19.72
2019-03-08T13:54:07.014Z,19.35
2019-03-08T13:56:34.543Z,19.19
2019-03-08T13:59:02.138Z,19.03
2019-03-08T14:01:29.662Z,19.12
2019-03-08T14:03:57.271Z,19.00
2019-03-08T14:06:24.843Z,18.67
2019-03-08T14:08:53.586Z,18.37
2019-03-08T14:11:21.121Z,18.03
2019-03-08T14:13:48.778Z,17.76
2019-03-08T14:16:16.345Z,17.19
2019-03-08T14:18:43.988Z,16.58
2019-03-08T14:21:11.710Z,16.44
2019-03-08T14:23:39.377Z,16.25
2019-03-08T14:26:07.038Z,16.08
2019-03-08T14:28:34.731Z,15.90
2019-03-08T14:31:13.991Z,15.94
2019-03-08T14:33:41.707Z,15.64
2019-03-08T14:36:09.612Z,15.49
2019-03-08T14:38:37.616Z,15.38
2019-03-08T14:41:13.692Z,15.31
2019-03-08T14:44:13.292Z,15.43
2019-03-08T14:46:47.719Z,15.41
2019-03-08T14:49:15.398Z,15.49
2019-03-08T14:51:44.720Z,15.61
2019-03-08T14:54:12.755Z,15.80
2019-03-08T14:56:40.556Z,15.83
2019-03-08T14:59:11.129Z,15.90
2019-03-08T15:01:39.954Z,15.80
2019-03-08T15:04:07.708Z,15.68
2019-03-08T15:06:35.313Z,15.37
2019-03-08T15:09:05.900Z,15.25
2019-03-08T15:11:33.475Z,15.09
2019-03-08T15:14:01.136Z,14.83
2019-03-08T15:16:28.715Z,14.58
2019-03-08T15:18:56.350Z,14.40
2019-03-08T15:21:23.974Z,14.47
2019-03-08T15:23:54.499Z,14.47
2019-03-08T15:26:21.151Z,14.45
2019-03-08T15:28:48.791Z,14.52
2019-03-08T15:31:16.323Z,14.40
2019-03-08T15:33:43.945Z,14.36
2019-03-08T15:36:11.548Z,14.26
2019-03-08T15:38:40.182Z,14.23
2019-03-08T15:41:07.840Z,14.19
2019-03-08T15:43:35.518Z,14.22
2019-03-08T15:46:03.213Z,14.09
2019-03-08T15:48:31.004Z,14.06
2019-03-08T15:50:59.553Z,13.95
2019-03-08T15:53:27.683Z,13.93
2019-03-08T15:55:55.307Z,13.93
2019-03-08T15:58:22.918Z,13.79
2019-03-08T16:00:50.461Z,13.62
2019-03-08T16:03:17.997Z,13.69
2019-03-08T16:05:45.683Z,13.60
2019-03-08T16:08:13.471Z,13.58
2019-03-08T16:10:41.101Z,13.55
2019-03-08T16:13:08.676Z,13.47
2019-03-08T16:15:36.319Z,13.44
2019-03-08T16:18:03.873Z,13.40
2019-03-08T16:20:31.527Z,13.33
2019-03-08T16:23:02.607Z,13.34
2019-03-08T16:25:28.586Z,13.17
2019-03-08T16:27:56.178Z,13.18
2019-03-08T16:30:30.009Z,13.21
2019-03-08T16:33:17.297Z,12.99
2019-03-08T16:35:53.789Z,12.89
2019-03-08T16:38:30.885Z,12.99
2019-03-08T16:41:18.108Z,12.94
2019-03-08T16:44:11.372Z,12.96
2019-03-08T16:47:08.820Z,12.84
2019-03-08T16:49:59.255Z,12.64
2019-03-08T16:52:58.296Z,12.66
2019-03-08T16:55:45.483Z,12.54
2019-03-08T16:58:47.304Z,12.51
2019-03-08T17:01:46.571Z,12.38
2019-03-08T17:04:28.904Z,12.30
2019-03-08T17:07:19.251Z,12.27
2019-03-08T17:09:54.679Z,12.27
2019-03-08T17:12:47.515Z,12.09
2019-03-08T17:15:37.530Z,12.15
2019-03-08T17:18:27.170Z,12.07
2019-03-08T17:21:19.905Z,12.01
2019-03-08T17:23:57.727Z,11.78
2019-03-08T17:26:47.688Z,11.64
2019-03-08T17:29:40.365Z,11.60
2019-03-08T17:32:27.628Z,11.53
2019-03-08T17:35:08.519Z,11.34
2019-03-08T17:38:02.232Z,11.26
2019-03-08T17:40:49.287Z,11.20
2019-03-08T17:43:27.349Z,11.06
2019-03-08T17:46:05.364Z,10.94
2019-03-08T17:48:44.702Z,10.72
2019-03-08T17:51:25.923Z,10.77
2019-03-08T17:54:31.041Z,10.71
2019-03-08T17:57:27.309Z,10.68
2019-03-08T18:00:26.078Z,10.58
2019-03-08T18:02:59.721Z,10.64
2019-03-08T18:05:49.706Z,10.67
2019-03-08T18:08:39.395Z,10.68
2019-03-08T18:11:22.121Z,10.63
2019-03-08T18:13:59.721Z,10.72
2019-03-08T18:16:50.621Z,10.73
2019-03-08T18:19:35.706Z,10.74
2019-03-08T18:22:15.938Z,10.73
2019-03-08T18:25:01.490Z,10.75
2019-03-08T18:27:47.506Z,10.74
2019-03-08T18:30:34.636Z,10.61
2019-03-08T18:33:21.762Z,10.57
2019-03-08T18:36:04.679Z,10.58
2019-03-08T18:38:41.737Z,10.64
2019-03-08T18:41:27.576Z,10.58
2019-03-08T18:44:23.563Z,10.57
2019-03-08T18:47:09.068Z,10.54
2019-03-08T18:49:55.647Z,10.45
2019-03-08T18:52:50.674Z,10.49
2019-03-08T18:55:53.195Z,10.47
2019-03-08T18:58:40.326Z,10.39
2019-03-08T19:01:30.000Z,10.32
2019-03-08T19:04:05.808Z,10.26
2019-03-08T19:06:59.361Z,10.27
2019-03-08T19:09:33.506Z,10.40
2019-03-08T19:12:09.417Z,10.35
2019-03-08T19:14:52.777Z,10.33
2019-03-08T19:17:40.403Z,10.36
2019-03-08T19:20:26.002Z,10.34
2019-03-08T19:23:19.533Z,10.43
2019-03-08T19:26:09.719Z,10.39
2019-03-08T19:28:46.594Z,10.36
2019-03-08T19:31:28.891Z,10.34
2019-03-08T19:34:12.344Z,10.37
2019-03-08T19:36:58.029Z,10.35
2019-03-08T19:39:45.170Z,10.30
2019-03-08T19:42:32.398Z,10.19
2019-03-08T19:45:25.515Z,9.99
2019-03-08T19:48:10.750Z,10.00
2019-03-08T19:50:50.544Z,9.88
2019-03-08T19:53:40.556Z,9.89
2019-03-08T19:56:26.270Z,9.86
2019-03-08T19:59:19.322Z,9.94
2019-03-08T20:02:24.339Z,9.92
2019-03-08T20:05:11.506Z,9.82
2019-03-08T20:07:57.964Z,9.81
2019-03-08T20:10:43.691Z,9.71
2019-03-08T20:13:23.083Z,9.71
2019-03-08T20:16:05.455Z,9.66
2019-03-08T20:18:51.234Z,9.68
2019-03-08T20:21:33.487Z,9.56
2019-03-08T20:24:30.092Z,9.58
2019-03-08T20:27:11.852Z,9.45
2019-03-08T20:30:04.857Z,9.53
2019-03-08T20:32:50.388Z,9.42
2019-03-08T20:35:31.967Z,9.48
2019-03-08T20:38:10.128Z,9.51
2019-03-08T20:41:03.152Z,9.55
2019-03-08T20:43:35.816Z,9.50
2019-03-08T20:46:10.598Z,9.43
2019-03-08T20:48:38.400Z,9.40
2019-03-08T20:51:06.084Z,9.43
2019-03-08T20:53:33.792Z,9.41
2019-03-08T20:56:01.524Z,9.38
2019-03-08T20:58:30.614Z,9.38
2019-03-08T21:00:58.374Z,9.19
2019-03-08T21:03:26.844Z,9.27
2019-03-08T21:05:55.030Z,9.18
2019-03-08T21:08:22.985Z,8.93
2019-03-08T21:10:50.700Z,8.80
2019-03-08T21:13:19.474Z,8.73
2019-03-08T21:15:47.018Z,8.54
2019-03-08T21:18:14.745Z,8.52
2019-03-08T21:20:42.667Z,8.47
2019-03-08T21:23:10.359Z,8.30
2019-03-08T21:25:38.041Z,8.20
2019-03-08T21:28:05.744Z,8.12
2019-03-08T21:30:33.444Z,8.11
2019-03-08T21:33:01.083Z,8.09
2019-03-08T21:35:28.925Z,8.10
2019-03-08T21:37:56.572Z,8.14
2019-03-08T21:40:24.382Z,8.06
2019-03-08T21:42:52.101Z,8.16
2019-03-08T21:45:19.741Z,8.06
2019-03-08T21:47:47.443Z,7.87
2019-03-08T21:50:15.532Z,8.00
2019-03-08T21:52:43.290Z,7.83
2019-03-08T21:55:11.171Z,7.55
2019-03-08T21:57:38.889Z,7.47
2019-03-08T22:00:14.746Z,7.60
2019-03-08T22:02:43.048Z,7.77
2019-03-08T22:05:10.817Z,7.82
2019-03-08T22:07:38.338Z,7.83
2019-03-08T22:10:24.621Z,7.54
2019-03-08T22:12:52.453Z,7.68
2019-03-08T22:15:21.202Z,7.64
2019-03-08T22:17:48.768Z,7.58
2019-03-08T22:20:16.414Z,7.74
2019-03-08T22:22:43.958Z,7.79
2019-03-08T22:25:11.592Z,7.68
2019-03-08T22:27:39.570Z,7.76
2019-03-08T22:30:10.428Z,7.69
2019-03-08T22:32:37.953Z,7.46
2019-03-08T22:35:05.687Z,7.51
2019-03-08T22:37:33.201Z,7.60
2019-03-08T22:40:00.909Z,7.63
2019-03-08T22:42:28.439Z,7.78
2019-03-08T22:44:56.087Z,7.82
2019-03-08T22:47:23.651Z,7.78
2019-03-08T22:49:51.336Z,7.87
2019-03-08T22:52:18.853Z,7.82
2019-03-08T22:54:46.478Z,7.71
2019-03-08T22:57:14.196Z,7.74
2019-03-08T22:59:41.911Z,7.67
2019-03-08T23:02:09.549Z,7.56
2019-03-08T23:04:37.243Z,7.57
2019-03-08T23:07:04.862Z,7.58
2019-03-08T23:09:32.502Z,7.56
2019-03-08T23:12:00.030Z,7.54
2019-03-08T23:14:27.680Z,7.50
2019-03-08T23:16:55.202Z,7.48
2019-03-08T23:19:22.796Z,7.49
2019-03-08T23:21:50.868Z,7.51
2019-03-08T23:24:18.988Z,7.34
2019-03-08T23:27:03.882Z,7.32
2019-03-08T23:29:36.058Z,7.42
2019-03-08T23:32:10.728Z,7.48
2019-03-08T23:34:38.381Z,7.47
2019-03-08T23:37:05.995Z,7.44
2019-03-08T23:39:33.641Z,7.55
2019-03-08T23:42:01.190Z,7.40
2019-03-08T23:44:28.743Z,7.41
2019-03-08T23:46:56.384Z,7.39
2019-03-08T23:49:23.953Z,7.29
2019-03-08T23:51:51.544Z,7.39
2019-03-08T23:54:19.084Z,7.51
2019-03-08T23:56:47.034Z,7.51
2019-03-08T23:59:14.581Z,7.45
